Time;durP1;ratioP1;P1;durP2;ratioP2;P2;SDS_P1;SDS_P2;PMS_P1;PMS_P2;Temp;Humidity;BMP_temperature;BMP_pressure;BME280_temperature;BME280_humidity;BME280_pressure;Samples;Min_cycle;Max_cycle;Signal;HPM_P1;HPM_P2
2023/04/28 00:01:07;;;;;;;8.27;5.43;;;;;;;;;;5069640;27;20051;-67
2023/04/28 00:03:33;;;;;;;10.50;5.63;;;;;;;;;;5083492;28;20052;-67
2023/04/28 00:05:59;;;;;;;13.20;7.07;;;;;;;;;;5063732;28;20427;-67
2023/04/28 00:08:26;;;;;;;9.20;5.05;;;;;;;;;;5086027;28;20039;-67
2023/04/28 00:10:52;;;;;;;10.18;6.05;;;;;;;;;;5063536;27;20139;-67
2023/04/28 00:13:18;;;;;;;8.82;5.60;;;;;;;;;;5084376;28;20035;-67
2023/04/28 00:15:44;;;;;;;9.13;5.22;;;;;;;;;;5085702;28;20044;-67
2023/04/28 00:18:10;;;;;;;12.38;5.82;;;;;;;;;;5086847;27;21230;-67
2023/04/28 00:20:37;;;;;;;8.32;5.13;;;;;;;;;;5065290;28;20052;-67
2023/04/28 00:23:03;;;;;;;9.65;5.88;;;;;;;;;;5066981;28;20048;-67
2023/04/28 00:25:29;;;;;;;11.00;5.60;;;;;;;;;;5066392;28;20052;-67
2023/04/28 00:27:55;;;;;;;9.32;5.82;;;;;;;;;;5067178;28;20093;-67
2023/04/28 00:30:21;;;;;;;10.27;5.90;;;;;;;;;;5085486;27;20079;-67
2023/04/28 00:32:47;;;;;;;9.55;6.00;;;;;;;;;;5084972;28;21770;-67
2023/04/28 00:35:13;;;;;;;9.50;5.68;;;;;;;;;;5083023;27;20048;-67
2023/04/28 00:37:40;;;;;;;7.85;5.15;;;;;;;;;;5084018;28;20036;-67
2023/04/28 00:40:06;;;;;;;12.40;6.45;;;;;;;;;;5083101;27;20426;-67
2023/04/28 00:42:32;;;;;;;11.88;6.40;;;;;;;;;;5082692;28;20064;-67
2023/04/28 00:45:04;;;;;;;10.23;6.28;;;;;;;;;;5083539;28;20036;-67
2023/04/28 00:47:31;;;;;;;10.88;5.93;;;;;;;;;;5069245;28;20051;-67
2023/04/28 00:49:57;;;;;;;13.15;6.32;;;;;;;;;;5095726;27;20470;-67
2023/04/28 00:52:23;;;;;;;15.82;6.22;;;;;;;;;;5099591;27;20825;-67
2023/04/28 00:54:49;;;;;;;9.18;6.00;;;;;;;;;;5094501;28;21297;-67
2023/04/28 00:57:15;;;;;;;8.65;6.43;;;;;;;;;;5094509;27;20068;-67
2023/04/28 00:59:41;;;;;;;12.50;6.20;;;;;;;;;;5099757;28;20406;-67
2023/04/28 01:02:08;;;;;;;11.23;6.65;;;;;;;;;;5095799;28;20036;-67
2023/04/28 01:04:34;;;;;;;8.85;6.40;;;;;;;;;;5095733;28;20043;-67
2023/04/28 01:07:01;;;;;;;9.77;5.82;;;;;;;;;;5098387;28;20036;-67
2023/04/28 01:09:27;;;;;;;10.82;6.30;;;;;;;;;;5077911;28;20135;-67
2023/04/28 01:11:54;;;;;;;10.82;5.93;;;;;;;;;;5082757;28;20052;-67
2023/04/28 01:14:20;;;;;;;8.95;6.22;;;;;;;;;;5097363;28;20035;-67
2023/04/28 01:16:46;;;;;;;12.13;6.47;;;;;;;;;;5099095;28;20070;-67
2023/04/28 01:19:16;;;;;;;11.13;6.25;;;;;;;;;;5091441;28;20056;-67
2023/04/28 01:21:42;;;;;;;9.63;5.80;;;;;;;;;;5065165;28;20047;-67
2023/04/28 01:24:08;;;;;;;9.43;6.03;;;;;;;;;;5085295;28;20062;-67
2023/04/28 01:26:35;;;;;;;8.70;6.18;;;;;;;;;;5061694;28;20051;-67
2023/04/28 01:29:01;;;;;;;13.88;6.20;;;;;;;;;;5068719;28;20044;-67
2023/04/28 01:31:27;;;;;;;12.00;6.03;;;;;;;;;;5068781;28;20063;-67
2023/04/28 01:33:53;;;;;;;8.98;5.93;;;;;;;;;;5071176;28;20089;-67
2023/04/28 01:36:21;;;;;;;9.93;6.65;;;;;;;;;;5068923;28;20039;-67
2023/04/28 01:38:47;;;;;;;10.27;6.82;;;;;;;;;;5087003;28;20449;-67
2023/04/28 01:41:13;;;;;;;9.73;6.05;;;;;;;;;;5084888;28;20085;-67
2023/04/28 01:43:39;;;;;;;15.85;7.00;;;;;;;;;;5085079;28;20143;-67
2023/04/28 01:46:05;;;;;;;10.68;6.63;;;;;;;;;;5068964;28;20036;-67
2023/04/28 01:48:31;;;;;;;10.77;6.93;;;;;;;;;;5070629;27;20129;-67
2023/04/28 01:50:58;;;;;;;10.73;6.82;;;;;;;;;;5069207;28;20051;-67
2023/04/28 01:53:24;;;;;;;10.80;6.47;;;;;;;;;;5071497;27;20059;-67
2023/04/28 01:55:50;;;;;;;11.40;6.82;;;;;;;;;;5074940;28;20058;-67
2023/04/28 01:58:16;;;;;;;13.00;6.45;;;;;;;;;;5093524;28;20120;-67
2023/04/28 02:00:42;;;;;;;10.43;6.75;;;;;;;;;;5074968;28;20052;-67
2023/04/28 02:03:08;;;;;;;11.60;7.20;;;;;;;;;;5071602;28;20040;-67
2023/04/28 02:05:35;;;;;;;10.90;6.65;;;;;;;;;;5093295;27;20070;-67
2023/04/28 02:08:01;;;;;;;9.30;6.82;;;;;;;;;;5089298;28;20043;-67
2023/04/28 02:10:27;;;;;;;13.68;7.35;;;;;;;;;;5090898;28;20107;-67
2023/04/28 02:12:53;;;;;;;9.60;6.35;;;;;;;;;;5088324;27;20550;-67
2023/04/28 02:15:20;;;;;;;11.45;6.50;;;;;;;;;;5089735;28;20132;-67
2023/04/28 02:17:46;;;;;;;11.93;7.70;;;;;;;;;;5089985;27;20048;-67
2023/04/28 02:20:13;;;;;;;15.88;6.47;;;;;;;;;;5088621;28;20495;-67
2023/04/28 02:22:40;;;;;;;13.35;7.32;;;;;;;;;;5088192;27;20482;-67
2023/04/28 02:25:06;;;;;;;9.38;6.57;;;;;;;;;;5089646;27;20502;-67
2023/04/28 02:27:35;;;;;;;14.10;7.22;;;;;;;;;;5088511;27;20093;-67
2023/04/28 02:30:02;;;;;;;14.73;6.82;;;;;;;;;;5088853;27;20043;-67
2023/04/28 02:32:28;;;;;;;10.98;6.68;;;;;;;;;;5091585;28;20040;-67
2023/04/28 02:34:54;;;;;;;14.77;7.00;;;;;;;;;;5089894;27;20904;-67
2023/04/28 02:37:21;;;;;;;11.20;6.55;;;;;;;;;;5091384;27;20037;-67
2023/04/28 02:39:47;;;;;;;12.63;6.68;;;;;;;;;;5087100;27;20476;-67
2023/04/28 02:42:13;;;;;;;15.75;6.72;;;;;;;;;;5086760;27;20040;-67
2023/04/28 02:44:39;;;;;;;13.85;7.53;;;;;;;;;;5085639;27;20124;-67
2023/04/28 02:47:05;;;;;;;11.65;7.45;;;;;;;;;;5086207;27;20039;-67
2023/04/28 02:49:31;;;;;;;14.50;7.85;;;;;;;;;;5102358;28;20505;-67
2023/04/28 02:51:57;;;;;;;14.05;7.63;;;;;;;;;;5099887;28;20105;-67
2023/04/28 02:54:27;;;;;;;13.20;7.75;;;;;;;;;;5099773;28;20088;-67
2023/04/28 02:56:53;;;;;;;14.52;8.30;;;;;;;;;;5102362;28;20063;-67
2023/04/28 02:59:20;;;;;;;15.10;8.05;;;;;;;;;;5100780;27;20384;-67
2023/04/28 03:01:46;;;;;;;14.00;8.30;;;;;;;;;;5100390;27;20092;-67
2023/04/28 03:04:13;;;;;;;15.38;8.02;;;;;;;;;;5074196;28;20067;-67
2023/04/28 03:06:39;;;;;;;14.02;8.23;;;;;;;;;;5076603;27;20035;-67
2023/04/28 03:09:05;;;;;;;14.18;8.65;;;;;;;;;;5077366;28;20112;-67
2023/04/28 03:11:31;;;;;;;14.65;9.13;;;;;;;;;;5098689;28;20116;-67
2023/04/28 03:13:57;;;;;;;22.98;8.60;;;;;;;;;;5077640;28;20044;-67
2023/04/28 03:16:24;;;;;;;14.45;9.65;;;;;;;;;;5098252;27;20046;-67
2023/04/28 03:18:50;;;;;;;13.63;9.10;;;;;;;;;;5099085;28;20043;-67
2023/04/28 03:21:16;;;;;;;12.25;8.55;;;;;;;;;;5065970;28;20050;-67
2023/04/28 03:23:42;;;;;;;14.20;8.85;;;;;;;;;;5086055;28;20498;-67
2023/04/28 03:26:08;;;;;;;16.55;9.35;;;;;;;;;;5068909;27;20059;-67
2023/04/28 03:28:34;;;;;;;15.27;9.23;;;;;;;;;;5067375;28;20070;-67
2023/04/28 03:31:01;;;;;;;15.35;9.77;;;;;;;;;;5084871;28;20455;-67
2023/04/28 03:33:27;;;;;;;16.65;10.18;;;;;;;;;;5083678;27;20079;-67
2023/04/28 03:35:54;;;;;;;16.98;10.90;;;;;;;;;;5084113;27;20044;-67
2023/04/28 03:38:21;;;;;;;17.10;9.82;;;;;;;;;;5087632;27;20505;-67
2023/04/28 03:40:47;;;;;;;15.00;9.98;;;;;;;;;;5090546;27;20140;-67
2023/04/28 03:43:13;;;;;;;20.33;11.63;;;;;;;;;;5065063;28;20196;-67
2023/04/28 03:45:40;;;;;;;17.38;10.95;;;;;;;;;;5091467;28;20079;-67
2023/04/28 03:48:07;;;;;;;14.93;10.32;;;;;;;;;;5088459;28;20058;-67
2023/04/28 03:50:33;;;;;;;20.75;11.98;;;;;;;;;;5067279;28;20039;-67
2023/04/28 03:52:59;;;;;;;17.73;11.93;;;;;;;;;;5086211;28;20084;-67
2023/04/28 03:55:26;;;;;;;17.65;11.57;;;;;;;;;;5088693;27;20177;-67
2023/04/28 03:57:52;;;;;;;22.55;12.57;;;;;;;;;;5083824;28;20043;-67
2023/04/28 04:00:18;;;;;;;21.05;12.73;;;;;;;;;;5083844;28;20375;-67
2023/04/28 04:02:44;;;;;;;18.92;12.25;;;;;;;;;;5083090;27;20135;-67
2023/04/28 04:05:10;;;;;;;20.33;12.77;;;;;;;;;;5068330;28;20067;-67
2023/04/28 04:07:36;;;;;;;18.42;11.57;;;;;;;;;;5081379;27;20121;-67
2023/04/28 04:10:03;;;;;;;20.80;12.65;;;;;;;;;;5083402;27;20036;-67
2023/04/28 04:12:29;;;;;;;19.55;13.10;;;;;;;;;;5086039;28;20042;-67
2023/04/28 04:14:55;;;;;;;20.83;14.50;;;;;;;;;;5085952;27;20059;-67
2023/04/28 04:17:21;;;;;;;18.15;13.25;;;;;;;;;;5083108;28;20040;-67
2023/04/28 04:19:47;;;;;;;23.63;13.25;;;;;;;;;;5065418;28;20682;-67
2023/04/28 04:22:13;;;;;;;27.33;14.43;;;;;;;;;;5085546;27;20027;-67
2023/04/28 04:24:39;;;;;;;20.92;14.00;;;;;;;;;;5080835;28;20403;-67
2023/04/28 04:27:05;;;;;;;22.52;13.98;;;;;;;;;;5085036;28;20056;-67
2023/04/28 04:29:32;;;;;;;21.33;14.23;;;;;;;;;;5084333;27;20048;-67
2023/04/28 04:31:58;;;;;;;23.30;13.85;;;;;;;;;;5081021;28;21229;-67
2023/04/28 04:34:24;;;;;;;24.55;14.48;;;;;;;;;;5084610;27;20048;-67
2023/04/28 04:36:50;;;;;;;23.17;15.10;;;;;;;;;;5084825;28;20067;-67
2023/04/28 04:39:16;;;;;;;22.55;13.43;;;;;;;;;;5087330;27;20513;-67
2023/04/28 04:41:42;;;;;;;21.63;13.60;;;;;;;;;;5085414;27;20048;-67
2023/04/28 04:44:08;;;;;;;23.48;14.65;;;;;;;;;;5083710;28;20542;-67
2023/04/28 04:46:34;;;;;;;24.00;13.57;;;;;;;;;;5092391;28;20035;-67
2023/04/28 04:49:01;;;;;;;26.70;14.38;;;;;;;;;;5097186;28;20124;-67
2023/04/28 04:51:27;;;;;;;22.40;14.05;;;;;;;;;;5098373;27;20051;-65
2023/04/28 04:53:55;;;;;;;22.30;13.40;;;;;;;;;;5092163;28;20421;-65
2023/04/28 04:56:21;;;;;;;25.15;14.90;;;;;;;;;;5076101;28;20047;-67
2023/04/28 04:58:47;;;;;;;26.73;15.13;;;;;;;;;;5080932;28;20125;-66
2023/04/28 05:01:13;;;;;;;22.05;13.60;;;;;;;;;;5071155;28;20101;-67
2023/04/28 05:03:39;;;;;;;24.83;14.50;;;;;;;;;;5089017;28;20136;-67
2023/04/28 05:06:06;;;;;;;24.85;15.32;;;;;;;;;;5090028;27;20557;-67
2023/04/28 05:08:32;;;;;;;23.23;14.82;;;;;;;;;;5085834;28;20400;-67
2023/04/28 05:10:58;;;;;;;23.35;14.20;;;;;;;;;;5088343;28;20035;-67
2023/04/28 05:13:24;;;;;;;21.48;13.70;;;;;;;;;;5089404;28;20044;-66
2023/04/28 05:15:50;;;;;;;25.20;14.10;;;;;;;;;;5090921;28;20175;-67
2023/04/28 05:18:16;;;;;;;21.38;13.77;;;;;;;;;;5071343;28;20040;-67
2023/04/28 05:20:42;;;;;;;22.80;14.40;;;;;;;;;;5090479;28;20681;-67
2023/04/28 05:23:09;;;;;;;24.02;14.10;;;;;;;;;;5096878;28;20484;-67
2023/04/28 05:25:35;;;;;;;27.25;14.63;;;;;;;;;;5095208;27;20044;-66
2023/04/28 05:28:06;;;;;;;27.08;14.07;;;;;;;;;;5071257;28;20052;-67
2023/04/28 05:30:32;;;;;;;26.33;14.40;;;;;;;;;;5076886;28;20075;-70
2023/04/28 05:32:58;;;;;;;18.60;13.18;;;;;;;;;;5080438;28;20051;-65
2023/04/28 05:35:25;;;;;;;19.67;13.52;;;;;;;;;;5090061;27;20494;-65
2023/04/28 05:37:51;;;;;;;24.45;14.20;;;;;;;;;;5096841;27;20139;-65
2023/04/28 05:40:17;;;;;;;22.30;13.48;;;;;;;;;;5096675;28;20126;-66
2023/04/28 05:42:43;;;;;;;19.98;12.18;;;;;;;;;;5091065;28;20044;-65
2023/04/28 05:45:10;;;;;;;21.02;12.85;;;;;;;;;;5092288;27;20058;-65
2023/04/28 05:47:36;;;;;;;20.90;12.55;;;;;;;;;;5084050;28;20040;-65
2023/04/28 05:50:03;;;;;;;20.50;12.50;;;;;;;;;;5089991;27;20134;-65
2023/04/28 05:52:29;;;;;;;21.23;13.00;;;;;;;;;;5092937;27;20075;-66
2023/04/28 05:54:55;;;;;;;18.75;12.55;;;;;;;;;;5090649;27;20048;-65
2023/04/28 05:57:21;;;;;;;20.55;12.68;;;;;;;;;;5071913;28;20040;-65
2023/04/28 05:59:47;;;;;;;23.15;13.32;;;;;;;;;;5096637;27;20040;-65
2023/04/28 06:02:13;;;;;;;22.70;13.38;;;;;;;;;;5092009;28;20192;-65
2023/04/28 06:04:40;;;;;;;18.25;12.45;;;;;;;;;;5092393;27;20036;-64
2023/04/28 06:07:06;;;;;;;20.13;12.77;;;;;;;;;;5089014;27;20035;-65
2023/04/28 06:09:32;;;;;;;21.95;13.35;;;;;;;;;;5092523;28;20500;-71
2023/04/28 06:11:58;;;;;;;22.92;12.82;;;;;;;;;;5072432;28;20140;-64
2023/04/28 06:14:25;;;;;;;19.35;12.55;;;;;;;;;;5099953;27;20043;-63
2023/04/28 06:16:51;;;;;;;18.58;12.77;;;;;;;;;;5097279;27;20361;-64
2023/04/28 06:19:18;;;;;;;20.95;12.32;;;;;;;;;;5098688;27;20501;-64
2023/04/28 06:21:45;;;;;;;18.08;11.85;;;;;;;;;;5096355;27;20061;-65
2023/04/28 06:24:11;;;;;;;25.13;12.10;;;;;;;;;;5100055;27;20048;-65
2023/04/28 06:26:37;;;;;;;19.75;12.85;;;;;;;;;;5099925;28;20082;-65
2023/04/28 06:29:03;;;;;;;24.45;12.88;;;;;;;;;;5097990;27;20075;-65
2023/04/28 06:31:30;;;;;;;18.92;11.32;;;;;;;;;;5097277;28;20044;-65
2023/04/28 06:33:56;;;;;;;25.08;13.30;;;;;;;;;;5103235;28;20031;-65
2023/04/28 06:36:22;;;;;;;21.17;11.88;;;;;;;;;;5095650;27;20660;-65
2023/04/28 06:38:48;;;;;;;19.45;12.65;;;;;;;;;;5097208;27;20473;-65
2023/04/28 06:41:14;;;;;;;19.10;13.02;;;;;;;;;;5094589;28;20119;-65
2023/04/28 06:43:40;;;;;;;18.88;12.02;;;;;;;;;;5094032;27;20048;-65
2023/04/28 06:46:06;;;;;;;18.08;12.35;;;;;;;;;;5095930;27;20455;-65
2023/04/28 06:48:33;;;;;;;21.38;12.05;;;;;;;;;;5075759;28;20044;-65
2023/04/28 06:50:59;;;;;;;15.20;11.52;;;;;;;;;;5096575;27;20464;-65
2023/04/28 06:53:25;;;;;;;16.27;11.63;;;;;;;;;;5090158;27;20144;-65
2023/04/28 06:55:51;;;;;;;17.88;12.23;;;;;;;;;;5091190;27;20393;-65
2023/04/28 06:58:18;;;;;;;17.50;11.75;;;;;;;;;;5098026;28;20094;-65
2023/04/28 07:00:44;;;;;;;19.23;11.45;;;;;;;;;;5096111;28;20051;-65
2023/04/28 07:03:10;;;;;;;20.60;12.10;;;;;;;;;;5097031;28;20086;-65
2023/04/28 07:05:36;;;;;;;17.52;11.57;;;;;;;;;;5096596;27;20039;-65
2023/04/28 07:08:02;;;;;;;21.50;11.55;;;;;;;;;;5094695;27;20050;-65
2023/04/28 07:10:29;;;;;;;18.48;11.75;;;;;;;;;;5099701;27;20051;-65
2023/04/28 07:12:55;;;;;;;17.80;11.32;;;;;;;;;;5094279;28;20040;-65
2023/04/28 07:15:22;;;;;;;19.45;11.20;;;;;;;;;;5094560;28;20130;-65
2023/04/28 07:17:49;;;;;;;18.83;12.10;;;;;;;;;;5074691;28;20777;-65
2023/04/28 07:20:15;;;;;;;21.55;13.38;;;;;;;;;;5073162;28;20051;-65
2023/04/28 07:22:41;;;;;;;19.52;10.88;;;;;;;;;;5091876;28;20056;-65
2023/04/28 07:25:08;;;;;;;18.42;11.80;;;;;;;;;;5074203;28;20069;-65
2023/04/28 07:27:34;;;;;;;18.98;11.88;;;;;;;;;;5095142;27;20138;-65
2023/04/28 07:30:00;;;;;;;21.70;11.57;;;;;;;;;;5074482;28;20064;-65
2023/04/28 07:32:26;;;;;;;20.83;11.63;;;;;;;;;;5072954;28;20128;-65
2023/04/28 07:34:52;;;;;;;19.80;12.25;;;;;;;;;;5093398;28;20070;-65
2023/04/28 07:37:18;;;;;;;18.75;11.00;;;;;;;;;;5099951;27;20479;-65
2023/04/28 07:39:45;;;;;;;20.67;11.77;;;;;;;;;;5091033;27;20048;-65
2023/04/28 07:42:11;;;;;;;17.92;11.27;;;;;;;;;;5072675;28;20119;-65
2023/04/28 07:44:37;;;;;;;19.17;11.75;;;;;;;;;;5091490;28;20052;-65
2023/04/28 07:47:04;;;;;;;18.38;12.15;;;;;;;;;;5099124;27;20032;-65
2023/04/28 07:49:30;;;;;;;20.15;13.02;;;;;;;;;;5079168;28;20055;-65
2023/04/28 07:51:56;;;;;;;26.83;12.52;;;;;;;;;;5098921;28;20079;-65
2023/04/28 07:54:23;;;;;;;19.35;13.05;;;;;;;;;;5092711;27;20036;-65
2023/04/28 07:56:49;;;;;;;19.65;12.90;;;;;;;;;;5097918;27;20050;-65
2023/04/28 07:59:15;;;;;;;23.20;13.63;;;;;;;;;;5094111;27;20040;-65
2023/04/28 08:01:41;;;;;;;20.75;13.48;;;;;;;;;;5092231;27;20047;-65
2023/04/28 08:04:08;;;;;;;23.63;14.45;;;;;;;;;;5072238;28;20082;-65
2023/04/28 08:06:35;;;;;;;20.92;13.77;;;;;;;;;;5092894;27;20364;-65
2023/04/28 08:09:01;;;;;;;22.65;14.40;;;;;;;;;;5091302;27;20127;-65
2023/04/28 08:11:27;;;;;;;26.20;15.48;;;;;;;;;;5077769;28;20044;-65
2023/04/28 08:13:54;;;;;;;24.38;13.82;;;;;;;;;;5095544;27;20046;-65
2023/04/28 08:16:21;;;;;;;21.23;14.13;;;;;;;;;;5094367;28;20043;-65
2023/04/28 08:18:47;;;;;;;25.98;14.90;;;;;;;;;;5082979;28;20158;-65
2023/04/28 08:21:13;;;;;;;23.23;14.02;;;;;;;;;;5099850;27;20402;-65
2023/04/28 08:23:39;;;;;;;19.42;13.32;;;;;;;;;;5090722;28;20044;-65
2023/04/28 08:26:06;;;;;;;23.42;14.25;;;;;;;;;;5092729;27;20051;-65
2023/04/28 08:28:32;;;;;;;22.27;14.05;;;;;;;;;;5072987;28;20386;-65
2023/04/28 08:31:00;;;;;;;21.73;14.20;;;;;;;;;;5091197;27;20070;-65
2023/04/28 08:33:26;;;;;;;21.05;14.38;;;;;;;;;;5091172;27;20032;-65
2023/04/28 08:35:53;;;;;;;20.40;13.35;;;;;;;;;;5093201;28;20038;-65
2023/04/28 08:38:22;;;;;;;20.42;13.73;;;;;;;;;;5088489;28;20051;-65
2023/04/28 08:40:49;;;;;;;19.33;13.68;;;;;;;;;;5092940;28;20056;-65
2023/04/28 08:43:15;;;;;;;22.98;14.27;;;;;;;;;;5095514;28;20031;-65
2023/04/28 08:45:43;;;;;;;22.60;14.88;;;;;;;;;;5098983;27;20051;-65
2023/04/28 08:48:17;;;;;;;20.02;14.38;;;;;;;;;;5093886;28;20540;-65
2023/04/28 08:50:43;;;;;;;25.52;13.43;;;;;;;;;;5099003;28;20091;-65
2023/04/28 08:53:10;;;;;;;27.45;14.52;;;;;;;;;;5095056;28;20036;-65
2023/04/28 08:55:37;;;;;;;20.13;14.07;;;;;;;;;;5099501;28;20527;-65
2023/04/28 08:58:04;;;;;;;19.77;12.75;;;;;;;;;;5094161;28;20431;-65
2023/04/28 09:00:30;;;;;;;21.17;13.60;;;;;;;;;;5093147;28;20050;-65
2023/04/28 09:02:56;;;;;;;21.35;14.45;;;;;;;;;;5073947;28;20044;-65
2023/04/28 09:05:22;;;;;;;23.90;13.93;;;;;;;;;;5073099;28;20068;-65
2023/04/28 09:07:50;;;;;;;21.98;13.68;;;;;;;;;;5092315;28;20101;-65
2023/04/28 09:10:19;;;;;;;18.92;13.35;;;;;;;;;;5090173;27;20410;-65
2023/04/28 09:12:46;;;;;;;19.08;13.93;;;;;;;;;;5089896;28;20052;-65
2023/04/28 09:15:26;;;;;;;21.67;13.95;;;;;;;;;;5073972;28;20127;-65
2023/04/28 09:17:53;;;;;;;22.08;13.07;;;;;;;;;;5088484;28;20048;-65
2023/04/28 09:20:20;;;;;;;20.23;13.13;;;;;;;;;;5090144;28;20035;-65
2023/04/28 09:22:46;;;;;;;20.75;14.10;;;;;;;;;;5094241;28;21710;-65
2023/04/28 09:25:12;;;;;;;19.35;14.48;;;;;;;;;;5095635;28;20051;-65
2023/04/28 09:27:38;;;;;;;19.52;13.25;;;;;;;;;;5090378;28;20048;-65
2023/04/28 09:30:05;;;;;;;18.45;12.85;;;;;;;;;;5094577;28;20052;-65
2023/04/28 09:32:31;;;;;;;19.55;13.35;;;;;;;;;;5095179;28;20402;-65
2023/04/28 09:34:58;;;;;;;22.67;13.50;;;;;;;;;;5077441;28;20048;-65
2023/04/28 09:37:26;;;;;;;19.38;12.75;;;;;;;;;;5074628;28;20093;-65
2023/04/28 09:39:53;;;;;;;19.40;12.57;;;;;;;;;;5072522;28;20054;-66
2023/04/28 09:42:34;;;;;;;16.88;12.98;;;;;;;;;;5092866;28;20109;-65
2023/04/28 09:45:02;;;;;;;18.23;13.15;;;;;;;;;;5073590;28;20079;-66
2023/04/28 09:47:28;;;;;;;25.98;14.32;;;;;;;;;;5090339;28;20062;-65
2023/04/28 09:49:55;;;;;;;19.33;12.77;;;;;;;;;;5089173;28;20079;-65
2023/04/28 09:52:23;;;;;;;16.38;12.70;;;;;;;;;;5066385;28;20516;-65
2023/04/28 09:54:50;;;;;;;16.38;12.30;;;;;;;;;;5098541;28;20153;-65
2023/04/28 09:57:17;;;;;;;19.00;13.48;;;;;;;;;;5098752;28;20537;-65
2023/04/28 09:59:46;;;;;;;18.08;12.35;;;;;;;;;;5091944;28;20047;-65
2023/04/28 10:02:14;;;;;;;19.25;13.32;;;;;;;;;;5098348;28;20404;-65
2023/04/28 10:04:40;;;;;;;23.15;13.73;;;;;;;;;;5092472;28;20395;-65
2023/04/28 10:07:07;;;;;;;20.80;12.57;;;;;;;;;;5094043;27;20036;-65
2023/04/28 10:09:34;;;;;;;18.67;13.30;;;;;;;;;;5097194;28;20065;-65
2023/04/28 10:12:00;;;;;;;18.77;13.55;;;;;;;;;;5095044;27;20104;-65
2023/04/28 10:14:27;;;;;;;21.00;13.80;;;;;;;;;;5095788;28;20468;-65
2023/04/28 10:16:54;;;;;;;21.75;15.32;;;;;;;;;;5094275;28;20047;-65
2023/04/28 10:19:21;;;;;;;23.48;15.32;;;;;;;;;;5077508;28;20433;-65
2023/04/28 10:21:52;;;;;;;27.00;16.40;;;;;;;;;;5093451;28;20149;-65
2023/04/28 10:24:21;;;;;;;23.25;16.33;;;;;;;;;;5093823;28;20043;-65
2023/04/28 10:26:56;;;;;;;21.88;14.55;;;;;;;;;;5060350;28;20055;-65
2023/04/28 10:29:24;;;;;;;19.23;14.75;;;;;;;;;;5101824;28;20055;-65
2023/04/28 10:32:14;;;;;;;29.92;16.02;;;;;;;;;;5094931;28;20062;-65
2023/04/28 10:34:40;;;;;;;21.38;15.05;;;;;;;;;;5103394;27;20497;-65
2023/04/28 10:37:06;;;;;;;22.00;15.82;;;;;;;;;;5072764;27;20550;-65
2023/04/28 10:39:33;;;;;;;24.50;16.33;;;;;;;;;;5096971;28;20048;-65
2023/04/28 10:41:59;;;;;;;29.88;17.25;;;;;;;;;;5096079;28;20040;-65
2023/04/28 10:44:32;;;;;;;21.73;16.13;;;;;;;;;;5102184;28;20118;-65
2023/04/28 10:47:02;;;;;;;20.30;15.20;;;;;;;;;;5097409;28;20036;-65
2023/04/28 10:49:47;;;;;;;22.45;16.05;;;;;;;;;;5096755;27;20131;-65
2023/04/28 10:52:32;;;;;;;24.35;15.50;;;;;;;;;;5093761;27;20035;-65
2023/04/28 10:55:16;;;;;;;23.85;16.05;;;;;;;;;;5095988;27;20131;-65
2023/04/28 10:57:42;;;;;;;23.45;15.27;;;;;;;;;;5075551;28;21214;-65
2023/04/28 11:00:28;;;;;;;22.20;15.57;;;;;;;;;;5092713;27;20039;-65
2023/04/28 11:02:54;;;;;;;21.77;17.30;;;;;;;;;;5074292;27;20177;-64
2023/04/28 11:05:20;;;;;;;22.95;16.35;;;;;;;;;;5075233;28;20040;-74
2023/04/28 11:08:17;;;;;;;21.25;16.05;;;;;;;;;;5080937;28;20448;-64
2023/04/28 11:11:01;;;;;;;22.08;16.17;;;;;;;;;;5089898;28;21487;-64
2023/04/28 11:13:32;;;;;;;23.13;14.20;;;;;;;;;;5098734;28;20040;-64
2023/04/28 11:16:05;;;;;;;25.27;16.35;;;;;;;;;;5095279;27;20487;-64
2023/04/28 11:18:43;;;;;;;25.92;17.38;;;;;;;;;;5089824;27;20047;-64
2023/04/28 11:21:09;;;;;;;25.65;15.95;;;;;;;;;;5091425;27;20480;-64
2023/04/28 11:23:35;;;;;;;23.60;16.95;;;;;;;;;;5093271;27;20039;-64
2023/04/28 11:26:02;;;;;;;25.27;16.95;;;;;;;;;;5071722;28;20105;-64
2023/04/28 11:28:28;;;;;;;25.20;17.95;;;;;;;;;;5070833;27;20058;-64
2023/04/28 11:31:10;;;;;;;34.05;18.83;;;;;;;;;;5090455;27;20044;-64
2023/04/28 11:33:37;;;;;;;25.65;18.63;;;;;;;;;;5072329;27;20043;-64
2023/04/28 11:36:03;;;;;;;23.98;16.75;;;;;;;;;;5091368;27;20055;-64
2023/04/28 11:38:29;;;;;;;27.88;15.73;;;;;;;;;;5091004;27;20090;-64
2023/04/28 11:40:56;;;;;;;24.35;17.00;;;;;;;;;;5091603;27;20131;-65
2023/04/28 11:43:30;;;;;;;35.20;19.25;;;;;;;;;;5093715;27;20039;-65
2023/04/28 11:45:56;;;;;;;23.70;17.48;;;;;;;;;;5095123;27;20376;-65
2023/04/28 11:48:22;;;;;;;27.77;17.10;;;;;;;;;;5073921;28;20170;-65
2023/04/28 11:50:49;;;;;;;25.33;17.23;;;;;;;;;;5071845;28;21676;-65
2023/04/28 11:53:15;;;;;;;22.55;17.63;;;;;;;;;;5093888;28;20449;-65
2023/04/28 11:55:41;;;;;;;25.30;17.42;;;;;;;;;;5090262;28;20079;-65
2023/04/28 11:58:17;;;;;;;24.42;18.23;;;;;;;;;;5090546;27;20062;-65
2023/04/28 12:00:44;;;;;;;22.40;17.45;;;;;;;;;;5070509;27;20043;-67
2023/04/28 12:03:10;;;;;;;28.83;18.90;;;;;;;;;;5090421;27;20118;-67
2023/04/28 12:05:44;;;;;;;25.35;19.58;;;;;;;;;;5079263;27;20051;-66
2023/04/28 12:08:10;;;;;;;24.95;18.67;;;;;;;;;;5069612;28;20055;-66
2023/04/28 12:10:36;;;;;;;28.08;20.25;;;;;;;;;;5089128;28;20399;-66
2023/04/28 12:13:15;;;;;;;24.52;17.70;;;;;;;;;;5088143;27;20036;-66
2023/04/28 12:15:41;;;;;;;27.33;19.45;;;;;;;;;;5092720;27;20139;-67
2023/04/28 12:18:10;;;;;;;26.77;18.25;;;;;;;;;;5091804;28;20119;-66
2023/04/28 12:20:37;;;;;;;23.65;18.27;;;;;;;;;;5074527;27;20048;-67
2023/04/28 12:23:04;;;;;;;25.45;17.60;;;;;;;;;;5094295;27;20573;-67
2023/04/28 12:25:32;;;;;;;28.63;18.52;;;;;;;;;;5092357;27;20048;-67
2023/04/28 12:28:06;;;;;;;23.23;17.33;;;;;;;;;;5093400;28;20059;-66
2023/04/28 12:30:34;;;;;;;25.48;17.38;;;;;;;;;;5092514;28;20044;-67
2023/04/28 12:33:00;;;;;;;22.55;17.63;;;;;;;;;;5093211;27;20036;-65
2023/04/28 12:35:27;;;;;;;21.58;15.68;;;;;;;;;;5092008;27;20048;-64
2023/04/28 12:37:54;;;;;;;24.92;16.10;;;;;;;;;;5097327;27;20599;-65
2023/04/28 12:40:21;;;;;;;21.00;16.77;;;;;;;;;;5093589;27;20040;-65
2023/04/28 12:42:48;;;;;;;22.52;16.42;;;;;;;;;;5092433;27;20089;-64
2023/04/28 12:45:15;;;;;;;21.83;15.57;;;;;;;;;;5091505;27;20117;-65
2023/04/28 12:47:42;;;;;;;25.98;17.27;;;;;;;;;;5096372;27;20049;-64
2023/04/28 12:50:08;;;;;;;25.13;17.35;;;;;;;;;;5077710;28;20425;-67
2023/04/28 12:52:36;;;;;;;22.15;16.98;;;;;;;;;;5096315;27;20039;-65
2023/04/28 12:55:02;;;;;;;22.58;17.45;;;;;;;;;;5096272;27;20048;-65
2023/04/28 12:57:29;;;;;;;26.48;16.98;;;;;;;;;;5077697;28;20775;-76
2023/04/28 12:59:56;;;;;;;22.35;17.92;;;;;;;;;;5074836;28;20117;-65
2023/04/28 13:02:22;;;;;;;26.55;19.77;;;;;;;;;;5094422;28;20055;-65
2023/04/28 13:04:48;;;;;;;27.77;19.63;;;;;;;;;;5096462;28;20487;-74
2023/04/28 13:07:15;;;;;;;30.42;19.08;;;;;;;;;;5096143;27;20112;-76
2023/04/28 13:09:42;;;;;;;24.75;20.52;;;;;;;;;;5096297;28;20483;-64
2023/04/28 13:12:09;;;;;;;29.15;22.20;;;;;;;;;;5095901;28;20122;-72
2023/04/28 13:14:35;;;;;;;29.38;21.75;;;;;;;;;;5074910;28;20086;-81
2023/04/28 13:17:02;;;;;;;25.73;20.67;;;;;;;;;;5075984;28;20059;-78
2023/04/28 13:19:29;;;;;;;25.25;20.65;;;;;;;;;;5093290;28;20403;-66
2023/04/28 13:21:55;;;;;;;26.52;21.67;;;;;;;;;;5089460;28;20044;-66
2023/04/28 13:24:21;;;;;;;33.00;21.75;;;;;;;;;;5090028;28;20046;-66
2023/04/28 13:26:47;;;;;;;24.83;20.17;;;;;;;;;;5088167;28;20425;-67
2023/04/28 13:29:14;;;;;;;32.25;23.85;;;;;;;;;;5099946;28;20160;-67
2023/04/28 13:31:40;;;;;;;33.28;22.17;;;;;;;;;;5094864;28;20086;-66
2023/04/28 13:34:10;;;;;;;31.40;22.98;;;;;;;;;;5098707;28;20044;-66
2023/04/28 13:36:37;;;;;;;30.00;22.42;;;;;;;;;;5091794;28;20039;-66
2023/04/28 13:39:05;;;;;;;30.77;22.90;;;;;;;;;;5093619;28;20047;-66
2023/04/28 13:41:31;;;;;;;32.35;23.60;;;;;;;;;;5093302;27;20067;-66
2023/04/28 13:43:57;;;;;;;34.38;23.15;;;;;;;;;;5097136;27;20047;-66
2023/04/28 13:46:23;;;;;;;33.22;23.40;;;;;;;;;;5095102;27;20058;-66
2023/04/28 13:48:50;;;;;;;32.28;23.45;;;;;;;;;;5094687;27;20044;-66
2023/04/28 13:51:16;;;;;;;33.38;21.98;;;;;;;;;;5082034;28;20119;-66
2023/04/28 13:53:42;;;;;;;34.50;23.98;;;;;;;;;;5098950;27;20459;-66
2023/04/28 13:56:08;;;;;;;29.95;21.77;;;;;;;;;;5078337;27;20492;-66
2023/04/28 13:58:34;;;;;;;36.72;24.13;;;;;;;;;;5099997;27;20383;-66
2023/04/28 14:01:02;;;;;;;33.45;22.92;;;;;;;;;;5080536;28;20040;-66
2023/04/28 14:03:28;;;;;;;31.55;23.15;;;;;;;;;;5081077;28;20516;-66
2023/04/28 14:05:56;;;;;;;34.20;26.00;;;;;;;;;;5079186;27;20100;-66
2023/04/28 14:08:22;;;;;;;29.10;22.05;;;;;;;;;;5096601;27;20079;-66
2023/04/28 14:10:49;;;;;;;36.95;25.35;;;;;;;;;;5095133;27;20435;-66
2023/04/28 14:13:15;;;;;;;29.10;23.60;;;;;;;;;;5097623;27;20431;-66
2023/04/28 14:15:42;;;;;;;35.53;22.75;;;;;;;;;;5077704;28;20098;-66
2023/04/28 14:18:08;;;;;;;30.05;22.13;;;;;;;;;;5073587;28;20044;-66
2023/04/28 14:20:35;;;;;;;30.83;22.88;;;;;;;;;;5074251;28;20047;-66